createdAt,value
2023-02-27T00:00:57.521Z,14.50
2023-02-27T00:03:29.701Z,13.07
2023-02-27T00:05:57.317Z,14.80
2023-02-27T00:08:25.036Z,14.73
2023-02-27T00:10:52.381Z,14.32
2023-02-27T00:13:19.833Z,12.20
2023-02-27T00:15:48.268Z,14.18
2023-02-27T00:18:16.186Z,15.38
2023-02-27T00:20:43.543Z,14.45
2023-02-27T00:23:11.249Z,12.27
2023-02-27T00:25:38.378Z,14.15
2023-02-27T00:28:06.017Z,15.43
2023-02-27T00:30:33.752Z,19.23
2023-02-27T00:33:01.532Z,13.43
2023-02-27T00:35:28.900Z,15.40
2023-02-27T00:37:56.477Z,14.23
2023-02-27T00:40:25.603Z,12.57
2023-02-27T00:42:53.838Z,11.95
2023-02-27T00:45:21.370Z,13.57
2023-02-27T00:47:48.942Z,16.20
2023-02-27T00:50:16.620Z,13.98
2023-02-27T00:52:44.509Z,16.20
2023-02-27T00:55:12.402Z,14.68
2023-02-27T00:57:40.604Z,11.63
2023-02-27T01:00:11.511Z,11.30
2023-02-27T01:02:39.323Z,11.77
2023-02-27T01:05:08.353Z,13.20
2023-02-27T01:07:37.374Z,12.07
2023-02-27T01:10:05.913Z,11.30
2023-02-27T01:12:33.421Z,14.25
2023-02-27T01:15:00.863Z,12.93
2023-02-27T01:17:29.063Z,11.25
2023-02-27T01:19:57.008Z,13.10
2023-02-27T01:22:24.801Z,13.30
2023-02-27T01:24:52.398Z,10.68
2023-02-27T01:27:19.939Z,10.90
2023-02-27T01:29:47.336Z,11.80
2023-02-27T01:32:15.035Z,13.75
2023-02-27T01:34:43.396Z,14.38
2023-02-27T01:37:11.101Z,11.70
2023-02-27T01:39:38.527Z,12.75
2023-02-27T01:42:18.841Z,11.32
2023-02-27T01:45:19.151Z,9.18
2023-02-27T01:47:50.802Z,15.05
2023-02-27T01:50:19.059Z,13.65
2023-02-27T01:52:51.945Z,9.75
2023-02-27T01:55:20.427Z,11.20
2023-02-27T01:57:49.105Z,11.82
2023-02-27T02:00:17.006Z,10.75
2023-02-27T02:03:10.320Z,10.52
2023-02-27T02:05:38.067Z,12.57
2023-02-27T02:08:09.360Z,15.65
2023-02-27T02:10:36.645Z,15.73
2023-02-27T02:13:05.072Z,12.05
2023-02-27T02:15:37.145Z,11.05
2023-02-27T02:18:16.899Z,13.75
2023-02-27T02:20:50.294Z,10.93
2023-02-27T02:23:55.893Z,15.77
2023-02-27T02:27:01.816Z,145.57
2023-02-27T02:29:54.528Z,38.83
2023-02-27T02:32:39.039Z,44.40
2023-02-27T02:35:06.605Z,15.63
2023-02-27T02:38:04.728Z,19.75
2023-02-27T02:40:58.560Z,21.25
2023-02-27T02:43:40.456Z,35.10
2023-02-27T02:46:22.439Z,37.33
2023-02-27T02:49:02.388Z,25.30
2023-02-27T02:51:44.782Z,16.15
2023-02-27T02:54:52.471Z,23.60
2023-02-27T02:57:38.463Z,12.55
2023-02-27T03:00:15.145Z,17.13
2023-02-27T03:02:49.537Z,21.40
2023-02-27T03:05:25.228Z,17.33
2023-02-27T03:08:04.330Z,25.30
2023-02-27T03:10:36.438Z,15.07
2023-02-27T03:13:18.426Z,20.73
2023-02-27T03:15:49.554Z,25.58
2023-02-27T03:18:21.929Z,28.92
2023-02-27T03:20:56.025Z,14.70
2023-02-27T03:23:27.505Z,18.13
2023-02-27T03:25:58.152Z,17.27
2023-02-27T03:28:33.083Z,16.80
2023-02-27T03:31:10.172Z,13.43
2023-02-27T03:33:54.315Z,21.98
2023-02-27T03:36:27.724Z,15.23
2023-02-27T03:39:02.661Z,15.55
2023-02-27T03:41:48.656Z,16.25
2023-02-27T03:44:46.094Z,12.57
2023-02-27T03:47:13.727Z,14.13
2023-02-27T03:49:41.635Z,14.93
2023-02-27T03:52:09.292Z,16.30
2023-02-27T03:54:40.570Z,15.57
2023-02-27T03:57:09.050Z,16.70
2023-02-27T03:59:38.170Z,15.20
2023-02-27T04:02:05.820Z,15.15
2023-02-27T04:04:35.878Z,13.68
2023-02-27T04:07:46.912Z,12.52
2023-02-27T04:10:19.722Z,13.13
2023-02-27T04:13:11.764Z,10.63
2023-02-27T04:16:10.269Z,9.77
2023-02-27T04:18:49.879Z,11.00
2023-02-27T04:21:17.540Z,8.85
2023-02-27T04:24:12.345Z,11.20
2023-02-27T04:26:46.041Z,11.35
2023-02-27T04:29:24.882Z,10.07
2023-02-27T04:32:01.534Z,13.40
2023-02-27T04:34:40.812Z,32.72
2023-02-27T04:37:28.506Z,48.67
2023-02-27T04:40:06.520Z,13.85
2023-02-27T04:42:39.327Z,36.78
2023-02-27T04:45:09.917Z,62.65
2023-02-27T04:47:43.557Z,12.10
2023-02-27T04:50:15.496Z,10.82
2023-02-27T04:52:50.752Z,14.80
2023-02-27T04:55:22.697Z,16.45
2023-02-27T04:57:55.492Z,30.73
2023-02-27T05:00:24.361Z,18.80
2023-02-27T05:02:56.326Z,13.93
2023-02-27T05:05:27.811Z,12.20
2023-02-27T05:08:06.257Z,15.27
2023-02-27T05:10:47.530Z,20.27
2023-02-27T05:13:18.637Z,14.80
2023-02-27T05:15:53.146Z,11.43
2023-02-27T05:18:22.232Z,11.98
2023-02-27T05:20:53.988Z,10.88
2023-02-27T05:23:39.149Z,15.45
2023-02-27T05:26:14.810Z,11.50
2023-02-27T05:29:03.558Z,8.80
2023-02-27T05:31:46.492Z,5.43
2023-02-27T05:34:27.712Z,5.70
2023-02-27T05:37:02.399Z,5.88
2023-02-27T05:39:31.990Z,3.25
2023-02-27T05:42:02.636Z,6.55
2023-02-27T05:44:33.764Z,3.88
2023-02-27T05:47:06.164Z,9.02
2023-02-27T05:49:43.945Z,4.43
2023-02-27T05:52:13.490Z,3.88
2023-02-27T05:55:03.617Z,4.00
2023-02-27T05:57:36.358Z,2.95
2023-02-27T06:00:14.503Z,3.53
2023-02-27T06:02:43.218Z,6.60
2023-02-27T06:05:16.729Z,3.60
2023-02-27T06:07:44.116Z,3.47
2023-02-27T06:10:16.615Z,5.70
2023-02-27T06:12:44.344Z,5.22
2023-02-27T06:15:13.263Z,2.63
2023-02-27T06:17:40.998Z,4.30
2023-02-27T06:20:09.646Z,5.40
2023-02-27T06:22:37.245Z,2.35
2023-02-27T06:25:05.240Z,3.95
2023-02-27T06:27:32.809Z,4.70
2023-02-27T06:30:00.649Z,6.65
2023-02-27T06:32:28.183Z,5.72
2023-02-27T06:34:56.302Z,7.22
2023-02-27T06:37:23.819Z,4.03
2023-02-27T06:39:52.252Z,5.00
2023-02-27T06:42:19.687Z,3.45
2023-02-27T06:44:47.746Z,3.05
2023-02-27T06:47:15.299Z,3.05
2023-02-27T06:49:43.223Z,3.13
2023-02-27T06:52:10.655Z,4.10
2023-02-27T06:54:38.368Z,2.00
2023-02-27T06:57:05.552Z,4.53
2023-02-27T06:59:33.214Z,3.65
2023-02-27T07:02:00.816Z,3.50
2023-02-27T07:04:28.729Z,5.43
2023-02-27T07:07:34.631Z,5.25
2023-02-27T07:09:43.751Z,4.47
2023-02-27T07:12:11.127Z,3.40
2023-02-27T07:14:38.813Z,5.07
2023-02-27T07:17:06.320Z,3.58
2023-02-27T07:19:36.041Z,3.63
2023-02-27T07:22:04.039Z,3.75
2023-02-27T07:24:31.709Z,3.40
2023-02-27T07:26:58.869Z,2.90
2023-02-27T07:29:26.522Z,4.22
2023-02-27T07:31:53.886Z,7.00
2023-02-27T07:34:21.694Z,7.30
2023-02-27T07:36:49.047Z,2.45
2023-02-27T07:39:16.695Z,4.22
2023-02-27T07:41:44.057Z,3.53
2023-02-27T07:44:17.974Z,4.22
2023-02-27T07:46:47.307Z,5.88
2023-02-27T07:49:14.995Z,4.07
2023-02-27T07:51:42.501Z,2.83
2023-02-27T07:54:10.035Z,3.90
2023-02-27T07:56:37.378Z,2.13
2023-02-27T07:59:05.254Z,1.83
2023-02-27T08:01:32.721Z,3.30
2023-02-27T08:04:00.390Z,2.20
2023-02-27T08:06:28.092Z,1.85
2023-02-27T08:08:56.148Z,4.68
2023-02-27T08:11:23.878Z,2.70
2023-02-27T08:14:01.044Z,2.63
2023-02-27T08:16:29.562Z,2.00
2023-02-27T08:18:57.519Z,2.65
2023-02-27T08:21:25.014Z,2.28
2023-02-27T08:23:52.943Z,3.95
2023-02-27T08:26:21.111Z,2.40
2023-02-27T08:28:48.756Z,2.22
2023-02-27T08:31:16.470Z,3.42
2023-02-27T08:33:44.277Z,2.08
2023-02-27T08:36:11.682Z,2.15
2023-02-27T08:38:39.298Z,3.70
2023-02-27T08:41:06.724Z,2.67
2023-02-27T08:43:34.853Z,2.88
2023-02-27T08:46:02.229Z,2.17
2023-02-27T08:48:30.061Z,2.55
2023-02-27T08:50:58.014Z,2.42
2023-02-27T08:53:26.146Z,2.63
2023-02-27T08:55:53.563Z,3.83
2023-02-27T08:58:21.103Z,4.00
2023-02-27T09:00:48.551Z,7.32
2023-02-27T09:03:16.226Z,7.72
2023-02-27T09:05:43.634Z,5.25
2023-02-27T09:08:11.909Z,2.42
2023-02-27T09:10:39.249Z,2.53
2023-02-27T09:13:06.902Z,2.42
2023-02-27T09:15:38.239Z,7.75
2023-02-27T09:18:07.271Z,5.78
2023-02-27T09:20:38.298Z,4.63
2023-02-27T09:23:06.033Z,3.88
2023-02-27T09:25:33.551Z,4.57
2023-02-27T09:28:01.402Z,5.22
2023-02-27T09:30:28.927Z,4.25
2023-02-27T09:32:56.516Z,4.07
2023-02-27T09:35:24.045Z,3.70
2023-02-27T09:37:51.656Z,2.65
2023-02-27T09:40:42.440Z,2.88
2023-02-27T09:43:16.059Z,3.33
2023-02-27T09:45:44.793Z,2.28
2023-02-27T09:48:20.050Z,2.28
2023-02-27T09:50:52.929Z,4.45
2023-02-27T09:53:32.747Z,2.72
2023-02-27T09:56:19.610Z,3.13
2023-02-27T09:59:24.892Z,3.05
2023-02-27T10:02:18.326Z,3.00
2023-02-27T10:05:24.206Z,1.73
2023-02-27T10:08:02.232Z,2.47
2023-02-27T10:10:48.857Z,2.03
2023-02-27T10:13:34.278Z,2.55
2023-02-27T10:16:03.147Z,2.38
2023-02-27T10:18:47.578Z,1.40
2023-02-27T10:21:21.491Z,3.78
2023-02-27T10:24:03.246Z,3.20
2023-02-27T10:26:36.502Z,3.75
2023-02-27T10:29:15.157Z,1.40
2023-02-27T10:31:44.672Z,2.53
2023-02-27T10:34:16.618Z,3.67
2023-02-27T10:36:46.252Z,4.20
2023-02-27T10:39:17.380Z,3.85
2023-02-27T10:41:45.936Z,3.22
2023-02-27T10:44:18.825Z,3.35
2023-02-27T10:46:46.740Z,3.33
2023-02-27T10:49:19.482Z,3.80
2023-02-27T10:54:33.635Z,2.03
2023-02-27T10:57:02.676Z,3.13
2023-02-27T10:59:36.755Z,4.38
2023-02-27T11:02:22.703Z,2.53
2023-02-27T11:04:54.274Z,3.80
2023-02-27T11:07:31.533Z,3.87
2023-02-27T11:10:17.106Z,6.10
2023-02-27T11:13:02.363Z,6.18
2023-02-27T11:15:34.635Z,8.52
2023-02-27T11:20:50.958Z,3.25
2023-02-27T11:23:21.475Z,4.43
2023-02-27T11:25:48.915Z,2.88
2023-02-27T11:28:30.521Z,2.88
2023-02-27T11:31:17.945Z,4.47
2023-02-27T11:33:53.966Z,3.30
2023-02-27T11:36:23.874Z,3.78
2023-02-27T11:38:56.217Z,3.13
2023-02-27T11:41:31.180Z,4.70
2023-02-27T11:43:59.716Z,5.03
2023-02-27T11:46:47.245Z,2.40
2023-02-27T11:49:44.234Z,4.60
2023-02-27T11:52:23.191Z,2.25
2023-02-27T11:54:59.179Z,2.83
2023-02-27T11:57:32.761Z,5.53
2023-02-27T12:00:21.760Z,3.72
2023-02-27T12:03:26.751Z,6.70
2023-02-27T12:05:57.314Z,2.92
2023-02-27T12:08:51.978Z,4.65
2023-02-27T12:11:41.677Z,2.75
2023-02-27T12:14:08.982Z,2.38
2023-02-27T12:16:47.152Z,6.53
2023-02-27T12:19:37.789Z,3.70
2023-02-27T12:22:21.978Z,6.35
2023-02-27T12:25:02.547Z,9.25
2023-02-27T12:27:51.320Z,5.30
2023-02-27T12:30:22.706Z,3.42
2023-02-27T12:33:12.727Z,4.47
2023-02-27T12:35:43.374Z,3.15
2023-02-27T12:38:14.894Z,3.08
2023-02-27T12:41:14.618Z,3.58
2023-02-27T12:43:56.370Z,5.00
2023-02-27T12:46:44.142Z,4.20
2023-02-27T12:49:16.964Z,6.25
2023-02-27T12:51:56.077Z,3.20
2023-02-27T12:54:29.384Z,6.80
2023-02-27T13:00:01.114Z,4.68
2023-02-27T13:02:43.770Z,3.70
2023-02-27T13:05:33.539Z,3.75
2023-02-27T13:08:15.271Z,3.83
2023-02-27T13:11:06.940Z,4.43
2023-02-27T13:13:45.128Z,2.83
2023-02-27T13:16:14.568Z,6.03
2023-02-27T13:19:15.586Z,3.97
2023-02-27T13:21:54.283Z,4.50
2023-02-27T13:24:34.799Z,5.85
2023-02-27T13:27:08.014Z,3.47
2023-02-27T13:29:47.774Z,8.38
2023-02-27T13:32:41.270Z,4.60
2023-02-27T13:35:25.851Z,4.47
2023-02-27T13:38:07.416Z,3.35
2023-02-27T13:40:34.551Z,3.55
2023-02-27T13:43:51.503Z,6.28
2023-02-27T13:46:28.770Z,3.13
2023-02-27T13:49:06.074Z,2.58
2023-02-27T13:51:36.828Z,3.22
2023-02-27T13:54:17.000Z,5.03
2023-02-27T13:56:50.830Z,5.78
2023-02-27T13:59:27.399Z,3.65
2023-02-27T14:01:57.449Z,5.80
2023-02-27T14:04:27.634Z,3.97
2023-02-27T14:07:04.225Z,4.20
2023-02-27T14:09:37.299Z,4.93
2023-02-27T14:12:07.002Z,3.17
2023-02-27T14:14:44.389Z,5.63
2023-02-27T14:17:33.706Z,3.65
2023-02-27T14:20:05.561Z,8.73
2023-02-27T14:22:55.819Z,5.03
2023-02-27T14:25:33.577Z,3.70
2023-02-27T14:28:02.660Z,3.63
2023-02-27T14:30:36.915Z,3.85
2023-02-27T14:33:39.053Z,5.20
2023-02-27T14:36:26.290Z,4.25
2023-02-27T14:38:57.876Z,5.32
2023-02-27T14:41:39.666Z,2.60
2023-02-27T14:44:18.725Z,3.50
2023-02-27T14:46:46.641Z,4.38
2023-02-27T14:49:29.599Z,4.28
2023-02-27T14:51:57.616Z,4.53
2023-02-27T14:54:26.474Z,5.55
2023-02-27T14:56:58.083Z,6.18
2023-02-27T14:59:26.928Z,5.72
2023-02-27T15:01:58.996Z,4.43
2023-02-27T15:04:29.210Z,5.50
2023-02-27T15:07:08.595Z,4.50
2023-02-27T15:09:43.964Z,5.25
2023-02-27T15:12:21.109Z,5.13
2023-02-27T15:14:52.986Z,5.97
2023-02-27T15:17:26.332Z,4.93
2023-02-27T15:19:58.586Z,5.35
2023-02-27T15:22:39.001Z,5.50
2023-02-27T15:25:25.385Z,5.50
2023-02-27T15:27:55.266Z,7.22
2023-02-27T15:30:22.661Z,6.70
2023-02-27T15:32:50.383Z,5.10
2023-02-27T15:35:22.363Z,7.30
2023-02-27T15:38:02.530Z,6.47
2023-02-27T15:40:31.947Z,6.95
2023-02-27T15:43:01.093Z,5.25
2023-02-27T15:45:34.688Z,9.93
2023-02-27T15:48:03.878Z,5.22
2023-02-27T15:50:37.699Z,9.27
2023-02-27T15:53:10.970Z,6.82
2023-02-27T15:55:41.175Z,7.18
2023-02-27T15:58:34.532Z,8.75
2023-02-27T16:01:09.317Z,5.68
2023-02-27T16:03:44.207Z,7.22
2023-02-27T16:06:15.968Z,5.70
2023-02-27T16:08:52.679Z,5.70
2023-02-27T16:11:34.870Z,6.90
2023-02-27T16:14:04.266Z,7.72
2023-02-27T16:16:37.614Z,9.13
2023-02-27T16:19:16.306Z,6.28
2023-02-27T16:22:15.768Z,7.47
2023-02-27T16:24:44.299Z,8.57
2023-02-27T16:27:26.489Z,3.72
2023-02-27T16:29:56.695Z,7.22
2023-02-27T16:32:29.227Z,6.70
2023-02-27T16:37:39.770Z,8.38
2023-02-27T16:40:20.354Z,9.57
2023-02-27T16:42:47.785Z,12.65
2023-02-27T16:45:20.806Z,8.73
2023-02-27T16:47:56.456Z,8.00
2023-02-27T16:50:25.278Z,7.47
2023-02-27T16:52:52.829Z,6.57
2023-02-27T16:55:20.933Z,6.50
2023-02-27T16:57:48.181Z,8.65
2023-02-27T17:00:18.086Z,11.48
2023-02-27T17:02:46.916Z,6.25
2023-02-27T17:05:15.793Z,10.00
2023-02-27T17:07:43.854Z,9.27
2023-02-27T17:10:22.434Z,7.38
2023-02-27T17:12:49.719Z,23.05
2023-02-27T17:15:17.796Z,22.98
2023-02-27T17:17:45.725Z,11.35
2023-02-27T17:20:15.004Z,14.35
2023-02-27T17:22:44.111Z,18.00
2023-02-27T17:25:12.972Z,8.18
2023-02-27T17:27:42.562Z,15.95
2023-02-27T17:30:11.200Z,15.45
2023-02-27T17:32:38.638Z,6.65
2023-02-27T17:35:06.986Z,11.27
2023-02-27T17:37:35.926Z,10.27
2023-02-27T17:40:05.749Z,6.47
2023-02-27T17:42:36.264Z,9.95
2023-02-27T17:45:05.881Z,11.77
2023-02-27T17:47:34.190Z,16.58
2023-02-27T17:50:02.173Z,12.48
2023-02-27T17:52:29.448Z,44.60
2023-02-27T17:54:57.202Z,55.55
2023-02-27T17:57:24.336Z,37.35
2023-02-27T17:59:52.053Z,40.85
2023-02-27T18:02:19.486Z,52.00
2023-02-27T18:04:47.602Z,34.85
2023-02-27T18:07:15.010Z,31.55
2023-02-27T18:09:45.913Z,25.55
2023-02-27T18:12:13.516Z,53.08
2023-02-27T18:14:41.222Z,24.02
2023-02-27T18:17:12.324Z,24.58
2023-02-27T18:19:41.989Z,21.58
2023-02-27T18:22:10.287Z,17.83
2023-02-27T18:24:38.475Z,52.78
2023-02-27T18:27:05.902Z,40.97
2023-02-27T18:29:33.762Z,56.00
2023-02-27T18:32:01.045Z,38.67
2023-02-27T18:34:28.682Z,22.33
2023-02-27T18:36:58.126Z,34.45
2023-02-27T18:39:25.876Z,25.42
2023-02-27T18:41:53.142Z,25.60
2023-02-27T18:44:20.873Z,36.15
2023-02-27T18:46:48.307Z,21.90
2023-02-27T18:49:16.013Z,21.60
2023-02-27T18:51:44.279Z,28.40
2023-02-27T18:54:14.084Z,20.92
2023-02-27T18:56:41.867Z,31.70
2023-02-27T18:59:09.593Z,35.03
2023-02-27T19:01:38.722Z,40.17
2023-02-27T19:04:07.747Z,44.95
2023-02-27T19:06:40.763Z,33.63
2023-02-27T19:09:11.402Z,31.13
2023-02-27T19:11:38.878Z,30.67
2023-02-27T19:14:08.701Z,25.60
2023-02-27T19:16:36.982Z,29.30
2023-02-27T19:19:20.746Z,53.58
2023-02-27T19:21:48.402Z,69.70
2023-02-27T19:24:17.034Z,30.88
2023-02-27T19:26:44.481Z,40.90
2023-02-27T19:29:12.434Z,28.63
2023-02-27T19:31:40.052Z,28.15
2023-02-27T19:34:08.071Z,27.42
2023-02-27T19:36:35.615Z,28.83
2023-02-27T19:39:04.337Z,29.10
2023-02-27T19:41:33.400Z,26.83
2023-02-27T19:44:01.853Z,29.75
2023-02-27T19:46:32.656Z,40.33
2023-02-27T19:49:04.449Z,29.77
2023-02-27T19:51:32.078Z,38.97
2023-02-27T19:54:00.451Z,34.88
2023-02-27T19:56:31.196Z,35.05
2023-02-27T19:59:01.022Z,34.88
2023-02-27T20:01:32.045Z,32.92
2023-02-27T20:04:06.488Z,37.22
2023-02-27T20:06:42.216Z,48.42
2023-02-27T20:09:13.467Z,55.17
2023-02-27T20:11:44.827Z,45.75
2023-02-27T20:14:14.201Z,53.20
2023-02-27T20:16:41.930Z,41.08
2023-02-27T20:19:12.984Z,43.60
2023-02-27T20:21:42.926Z,41.13
2023-02-27T20:24:10.971Z,63.80
2023-02-27T20:26:43.846Z,100.80
2023-02-27T20:29:15.030Z,89.97
2023-02-27T20:31:46.597Z,90.88
2023-02-27T20:35:12.489Z,88.70
2023-02-27T20:37:40.214Z,81.10
2023-02-27T20:40:08.816Z,74.07
2023-02-27T20:42:36.677Z,72.13
2023-02-27T20:45:05.561Z,72.22
2023-02-27T20:47:32.856Z,67.93
2023-02-27T20:50:00.678Z,69.57
2023-02-27T20:52:28.447Z,66.22
2023-02-27T20:54:56.046Z,68.47
2023-02-27T20:57:23.408Z,68.72
2023-02-27T20:59:51.134Z,73.47
2023-02-27T21:02:18.659Z,75.65
2023-02-27T21:04:47.665Z,69.65
2023-02-27T21:07:17.821Z,79.45
2023-02-27T21:09:51.410Z,73.00
2023-02-27T21:12:19.091Z,73.45
2023-02-27T21:14:49.646Z,81.80
2023-02-27T21:17:17.312Z,82.07
2023-02-27T21:19:45.263Z,76.55
2023-02-27T21:22:14.345Z,78.72
2023-02-27T21:24:42.116Z,75.30
2023-02-27T21:27:09.574Z,73.55
2023-02-27T21:29:37.277Z,76.68
2023-02-27T21:32:04.724Z,67.97
2023-02-27T21:34:32.410Z,78.07
2023-02-27T21:37:02.016Z,76.63
2023-02-27T21:39:34.301Z,68.97
2023-02-27T21:42:02.438Z,66.22
2023-02-27T21:44:31.973Z,68.63
2023-02-27T21:46:59.501Z,69.95
2023-02-27T21:49:28.661Z,67.60
2023-02-27T21:51:55.904Z,56.47
2023-02-27T21:54:23.804Z,64.82
2023-02-27T21:56:51.373Z,66.70
2023-02-27T21:59:20.217Z,62.45
2023-02-27T22:01:48.586Z,58.22
2023-02-27T22:04:18.419Z,59.25
2023-02-27T22:06:46.494Z,53.35
2023-02-27T22:09:14.726Z,52.33
2023-02-27T22:11:42.940Z,64.97
2023-02-27T22:14:11.521Z,71.22
2023-02-27T22:16:39.086Z,62.88
2023-02-27T22:19:12.665Z,65.72
2023-02-27T22:21:40.672Z,65.32
2023-02-27T22:24:08.640Z,64.35
2023-02-27T22:26:36.624Z,56.22
2023-02-27T22:29:06.056Z,55.47
2023-02-27T22:31:36.003Z,51.75
2023-02-27T22:34:21.547Z,53.72
2023-02-27T22:36:52.428Z,61.78
2023-02-27T22:39:20.710Z,49.80
2023-02-27T22:41:48.352Z,56.90
2023-02-27T22:44:17.108Z,59.83
2023-02-27T22:46:47.266Z,57.47
2023-02-27T22:49:20.186Z,58.85
2023-02-27T22:51:51.037Z,66.40
2023-02-27T22:54:20.785Z,57.80
2023-02-27T22:56:52.099Z,67.07
2023-02-27T22:59:20.219Z,63.80
2023-02-27T23:01:48.813Z,127.53
2023-02-27T23:04:19.646Z,184.25
2023-02-27T23:06:52.241Z,135.38
2023-02-27T23:09:22.846Z,81.10
2023-02-27T23:11:50.527Z,56.38
2023-02-27T23:14:18.241Z,88.22
2023-02-27T23:16:46.730Z,57.85
2023-02-27T23:19:17.829Z,82.97
2023-02-27T23:21:45.308Z,95.22
2023-02-27T23:24:15.421Z,56.30
2023-02-27T23:26:45.693Z,49.80
2023-02-27T23:29:13.288Z,53.88
2023-02-27T23:31:40.936Z,51.88
2023-02-27T23:34:09.484Z,55.55
2023-02-27T23:36:38.548Z,47.63
2023-02-27T23:39:07.049Z,49.42
2023-02-27T23:41:34.681Z,48.03
2023-02-27T23:44:02.600Z,52.60
2023-02-27T23:46:30.850Z,50.50
2023-02-27T23:48:59.428Z,47.72
2023-02-27T23:51:29.778Z,47.75
2023-02-27T23:53:58.392Z,48.05
2023-02-27T23:56:32.347Z,50.03
2023-02-27T23:59:05.678Z,62.15
